createdAt,value
2018-08-30T00:01:57.042Z,23.73
2018-08-30T00:04:26.295Z,23.73
2018-08-30T00:06:55.350Z,23.72
2018-08-30T00:09:24.546Z,23.69
2018-08-30T00:11:54.091Z,23.68
2018-08-30T00:14:23.187Z,23.68
2018-08-30T00:16:52.436Z,23.67
2018-08-30T00:19:21.519Z,23.67
2018-08-30T00:21:50.506Z,23.64
2018-08-30T00:24:20.440Z,23.62
2018-08-30T00:26:49.549Z,23.59
2018-08-30T00:29:18.805Z,23.58
2018-08-30T00:31:48.072Z,23.56
2018-08-30T00:34:17.275Z,23.56
2018-08-30T00:36:46.199Z,23.56
2018-08-30T00:39:15.319Z,23.53
2018-08-30T00:41:44.312Z,23.52
2018-08-30T00:44:13.873Z,23.50
2018-08-30T00:46:42.934Z,23.52
2018-08-30T00:49:12.259Z,23.50
2018-08-30T00:51:41.744Z,23.48
2018-08-30T00:54:11.090Z,23.47
2018-08-30T00:56:40.134Z,23.47
2018-08-30T00:59:09.328Z,23.47
2018-08-30T01:01:38.803Z,23.48
2018-08-30T01:04:07.922Z,23.47
2018-08-30T01:06:37.334Z,23.48
2018-08-30T01:09:10.112Z,23.50
2018-08-30T01:11:42.859Z,23.50
2018-08-30T01:14:12.083Z,23.52
2018-08-30T01:16:41.087Z,23.52
2018-08-30T01:19:10.222Z,23.52
2018-08-30T01:21:39.182Z,23.53
2018-08-30T01:24:08.513Z,23.50
2018-08-30T01:26:37.721Z,23.47
2018-08-30T01:29:07.246Z,23.44
2018-08-30T01:31:36.530Z,23.40
2018-08-30T01:34:05.489Z,23.36
2018-08-30T01:36:34.652Z,23.33
2018-08-30T01:39:04.568Z,23.32
2018-08-30T01:41:34.413Z,23.28
2018-08-30T01:44:03.573Z,23.25
2018-08-30T01:46:32.812Z,23.22
2018-08-30T01:49:01.970Z,23.18
2018-08-30T01:51:30.991Z,23.16
2018-08-30T01:53:59.893Z,23.13
2018-08-30T01:56:29.633Z,23.11
2018-08-30T01:58:58.695Z,23.12
2018-08-30T02:01:27.981Z,23.13
2018-08-30T02:03:57.258Z,23.12
2018-08-30T02:06:26.363Z,23.14
2018-08-30T02:08:55.492Z,23.14
2018-08-30T02:11:24.896Z,23.15
2018-08-30T02:13:54.232Z,23.15
2018-08-30T02:16:23.602Z,23.16
2018-08-30T02:18:52.931Z,23.18
2018-08-30T02:21:21.907Z,23.20
2018-08-30T02:23:50.903Z,23.23
2018-08-30T02:26:19.889Z,23.24
2018-08-30T02:28:49.629Z,23.25
2018-08-30T02:31:20.560Z,23.27
2018-08-30T02:33:49.587Z,23.26
2018-08-30T02:36:18.726Z,23.27
2018-08-30T02:38:47.926Z,23.29
2018-08-30T02:41:17.001Z,23.29
2018-08-30T02:43:46.148Z,23.32
2018-08-30T02:46:15.515Z,23.34
2018-08-30T02:48:44.834Z,23.35
2018-08-30T02:51:13.840Z,23.36
2018-08-30T02:53:43.353Z,23.38
2018-08-30T02:56:12.313Z,23.38
2018-08-30T02:58:41.483Z,23.39
2018-08-30T03:01:10.406Z,23.40
2018-08-30T03:03:39.777Z,23.41
2018-08-30T03:06:09.040Z,23.41
2018-08-30T03:08:38.088Z,23.42
2018-08-30T03:11:07.454Z,23.42
2018-08-30T03:13:36.502Z,23.41
2018-08-30T03:16:05.646Z,23.41
2018-08-30T03:18:34.765Z,23.43
2018-08-30T03:21:03.982Z,23.36
2018-08-30T03:23:33.239Z,23.44
2018-08-30T03:26:03.157Z,23.45
2018-08-30T03:28:32.315Z,23.45
2018-08-30T03:31:01.506Z,23.47
2018-08-30T03:33:30.836Z,23.48
2018-08-30T03:36:00.610Z,23.48
2018-08-30T03:38:29.680Z,23.48
2018-08-30T03:40:58.760Z,23.48
2018-08-30T03:43:28.024Z,23.47
2018-08-30T03:45:56.988Z,23.48
2018-08-30T03:48:26.263Z,23.47
2018-08-30T03:50:55.479Z,23.46
2018-08-30T03:53:25.211Z,23.46
2018-08-30T03:55:54.288Z,23.46
2018-08-30T03:58:23.949Z,23.46
2018-08-30T04:00:53.156Z,23.46
2018-08-30T04:03:22.354Z,23.46
2018-08-30T04:05:51.462Z,23.48
2018-08-30T04:08:20.589Z,23.48
2018-08-30T04:10:49.607Z,23.46
2018-08-30T04:13:18.710Z,23.46
2018-08-30T04:15:47.886Z,23.46
2018-08-30T04:18:17.067Z,23.45
2018-08-30T04:20:46.323Z,23.45
2018-08-30T04:23:15.606Z,23.44
2018-08-30T04:25:44.725Z,23.43
2018-08-30T04:28:13.723Z,23.44
2018-08-30T04:30:42.695Z,23.45
2018-08-30T04:33:12.158Z,23.45
2018-08-30T04:35:41.235Z,23.44
2018-08-30T04:38:10.489Z,23.44
2018-08-30T04:40:39.515Z,23.43
2018-08-30T04:43:08.674Z,23.43
2018-08-30T04:45:38.341Z,23.45
2018-08-30T04:48:07.584Z,23.45
2018-08-30T04:50:36.805Z,23.48
2018-08-30T04:53:06.491Z,23.47
2018-08-30T04:55:36.216Z,23.47
2018-08-30T04:58:05.407Z,23.48
2018-08-30T05:00:34.384Z,23.51
2018-08-30T05:03:04.311Z,23.53
2018-08-30T05:05:33.450Z,23.55
2018-08-30T05:08:02.507Z,23.56
2018-08-30T05:10:31.646Z,23.59
2018-08-30T05:13:00.981Z,23.60
2018-08-30T05:15:30.137Z,23.59
2018-08-30T05:17:59.900Z,23.59
2018-08-30T05:20:29.459Z,23.58
2018-08-30T05:22:58.683Z,23.57
2018-08-30T05:25:28.186Z,23.55
2018-08-30T05:27:57.285Z,23.53
2018-08-30T05:30:32.857Z,23.55
2018-08-30T05:33:02.511Z,23.55
2018-08-30T05:35:31.536Z,23.53
2018-08-30T05:38:00.731Z,23.54
2018-08-30T05:40:29.966Z,23.53
2018-08-30T05:42:59.134Z,23.53
2018-08-30T05:45:28.377Z,23.53
2018-08-30T05:47:57.696Z,23.54
2018-08-30T05:50:26.824Z,23.55
2018-08-30T05:52:55.866Z,23.56
2018-08-30T05:55:25.585Z,23.59
2018-08-30T05:57:55.299Z,23.57
2018-08-30T06:00:25.129Z,23.57
2018-08-30T06:02:55.189Z,23.59
2018-08-30T06:05:24.901Z,23.59
2018-08-30T06:07:54.437Z,23.59
2018-08-30T06:10:23.737Z,23.57
2018-08-30T06:12:52.961Z,23.56
2018-08-30T06:15:22.168Z,23.56
2018-08-30T06:17:51.514Z,23.56
2018-08-30T06:20:20.637Z,23.56
2018-08-30T06:22:49.733Z,23.58
2018-08-30T06:25:19.238Z,23.59
2018-08-30T06:27:48.413Z,23.61
2018-08-30T06:30:17.686Z,23.66
2018-08-30T06:32:46.753Z,23.68
2018-08-30T06:35:16.628Z,23.70
2018-08-30T06:37:45.697Z,23.74
2018-08-30T06:40:15.613Z,23.78
2018-08-30T06:42:45.043Z,23.82
2018-08-30T06:45:14.515Z,23.85
2018-08-30T06:47:43.674Z,23.89
2018-08-30T06:50:12.899Z,23.92
2018-08-30T06:52:42.122Z,23.96
2018-08-30T06:55:11.360Z,24.00
2018-08-30T06:57:40.906Z,24.05
2018-08-30T07:00:10.369Z,24.08
2018-08-30T07:02:39.576Z,24.12
2018-08-30T07:05:09.133Z,24.16
2018-08-30T07:07:38.747Z,24.23
2018-08-30T07:10:07.686Z,24.30
2018-08-30T07:12:36.812Z,24.36
2018-08-30T07:15:06.599Z,24.39
2018-08-30T07:17:36.280Z,24.45
2018-08-30T07:20:05.760Z,24.55
2018-08-30T07:22:34.890Z,24.62
2018-08-30T07:25:04.433Z,24.68
2018-08-30T07:27:33.361Z,24.74
2018-08-30T07:30:02.504Z,24.81
2018-08-30T07:32:32.066Z,24.86
2018-08-30T07:35:01.322Z,24.89
2018-08-30T07:37:30.400Z,24.90
2018-08-30T07:39:59.500Z,24.92
2018-08-30T07:42:28.875Z,24.93
2018-08-30T07:44:58.198Z,24.97
2018-08-30T07:47:27.363Z,24.99
2018-08-30T07:49:56.455Z,25.02
2018-08-30T07:52:26.431Z,25.03
2018-08-30T07:54:55.398Z,25.05
2018-08-30T07:57:24.449Z,25.09
2018-08-30T07:59:53.653Z,25.15
2018-08-30T08:02:23.135Z,25.23
2018-08-30T08:04:52.442Z,25.32
2018-08-30T08:07:21.718Z,25.37
2018-08-30T08:09:51.097Z,25.42
2018-08-30T08:12:20.299Z,25.44
2018-08-30T08:14:49.559Z,25.45
2018-08-30T08:17:24.852Z,25.42
2018-08-30T08:19:54.413Z,25.40
2018-08-30T08:22:23.646Z,25.40
2018-08-30T08:24:53.104Z,25.39
2018-08-30T08:27:22.652Z,25.39
2018-08-30T08:29:52.039Z,25.43
2018-08-30T08:32:21.109Z,25.46
2018-08-30T08:34:50.318Z,25.50
2018-08-30T08:37:19.462Z,25.53
2018-08-30T08:39:48.700Z,25.58
2018-08-30T08:42:17.850Z,25.64
2018-08-30T08:44:47.123Z,25.70
2018-08-30T08:47:16.556Z,25.75
2018-08-30T08:49:45.897Z,25.80
2018-08-30T08:52:14.884Z,25.90
2018-08-30T08:54:43.909Z,25.94
2018-08-30T08:57:16.509Z,26.00
2018-08-30T08:59:46.644Z,26.04
2018-08-30T09:02:15.723Z,26.06
2018-08-30T09:04:45.062Z,26.08
2018-08-30T09:07:15.502Z,26.10
2018-08-30T09:09:44.978Z,26.12
2018-08-30T09:12:14.169Z,26.14
2018-08-30T09:14:43.203Z,26.15
2018-08-30T09:17:12.530Z,26.16
2018-08-30T09:19:41.668Z,26.19
2018-08-30T09:22:10.718Z,26.21
2018-08-30T09:24:39.856Z,26.23
2018-08-30T09:27:09.760Z,26.23
2018-08-30T09:29:38.914Z,26.21
2018-08-30T09:32:08.177Z,26.24
2018-08-30T09:34:37.894Z,26.24
2018-08-30T09:37:06.998Z,26.24
2018-08-30T09:39:35.982Z,26.25
2018-08-30T09:42:05.187Z,26.29
2018-08-30T09:44:34.132Z,26.34
2018-08-30T09:47:03.988Z,26.39
2018-08-30T09:49:33.188Z,26.42
2018-08-30T09:52:03.450Z,26.47
2018-08-30T09:54:32.519Z,26.51
2018-08-30T09:57:01.996Z,26.57
2018-08-30T09:59:32.517Z,26.63
2018-08-30T10:02:06.487Z,26.68
2018-08-30T10:04:35.467Z,26.72
2018-08-30T10:07:04.684Z,26.76
2018-08-30T10:09:33.858Z,26.78
2018-08-30T10:12:03.338Z,26.79
2018-08-30T10:14:32.491Z,26.78
2018-08-30T10:17:02.544Z,26.80
2018-08-30T10:19:31.569Z,26.83
2018-08-30T10:22:00.830Z,26.86
2018-08-30T10:24:29.974Z,26.85
2018-08-30T10:26:59.476Z,26.87
2018-08-30T10:29:28.318Z,26.89
2018-08-30T10:31:57.471Z,26.92
2018-08-30T10:34:26.871Z,26.95
2018-08-30T10:36:56.022Z,26.99
2018-08-30T10:39:25.371Z,27.01
2018-08-30T10:41:54.594Z,27.04
2018-08-30T10:44:23.701Z,27.06
2018-08-30T10:46:52.837Z,27.10
2018-08-30T10:49:22.449Z,27.17
2018-08-30T10:51:51.653Z,27.21
2018-08-30T10:54:21.146Z,27.25
2018-08-30T10:56:51.095Z,27.29
2018-08-30T10:59:20.345Z,27.34
2018-08-30T11:01:49.664Z,27.39
2018-08-30T11:04:19.429Z,27.44
2018-08-30T11:06:48.875Z,27.46
2018-08-30T11:09:18.075Z,27.51
2018-08-30T11:11:47.196Z,27.57
2018-08-30T11:14:16.612Z,27.62
2018-08-30T11:16:45.989Z,27.65
2018-08-30T11:19:15.178Z,27.69
2018-08-30T11:21:44.792Z,27.70
2018-08-30T11:24:14.340Z,27.70
2018-08-30T11:26:43.818Z,27.71
2018-08-30T11:29:13.134Z,27.73
2018-08-30T11:31:42.283Z,27.75
2018-08-30T11:34:11.927Z,27.81
2018-08-30T11:36:41.087Z,27.87
2018-08-30T11:39:10.729Z,27.92
2018-08-30T11:41:39.875Z,27.97
2018-08-30T11:44:09.991Z,27.99
2018-08-30T11:46:39.346Z,28.01
2018-08-30T11:49:09.220Z,28.07
2018-08-30T11:51:38.851Z,28.12
2018-08-30T11:54:08.304Z,28.18
2018-08-30T11:56:37.514Z,28.28
2018-08-30T11:59:06.775Z,28.36
2018-08-30T12:01:35.978Z,28.44
2018-08-30T12:04:05.734Z,28.50
2018-08-30T12:06:34.960Z,28.57
2018-08-30T12:09:05.971Z,28.60
2018-08-30T12:11:36.772Z,28.62
2018-08-30T12:14:05.927Z,28.67
2018-08-30T12:16:35.172Z,28.73
2018-08-30T12:19:04.698Z,28.79
2018-08-30T12:21:34.043Z,28.81
2018-08-30T12:24:03.278Z,28.83
2018-08-30T12:26:32.800Z,28.84
2018-08-30T12:29:02.113Z,28.86
2018-08-30T12:31:31.368Z,28.90
2018-08-30T12:34:00.707Z,28.96
2018-08-30T12:36:30.234Z,28.97
2018-08-30T12:38:59.559Z,28.98
2018-08-30T12:41:28.709Z,28.98
2018-08-30T12:43:58.446Z,29.00
2018-08-30T12:46:27.922Z,29.01
2018-08-30T12:48:57.317Z,29.04
2018-08-30T12:51:26.565Z,29.10
2018-08-30T12:53:55.631Z,29.13
2018-08-30T12:56:25.062Z,29.13
2018-08-30T12:58:59.420Z,29.14
2018-08-30T13:01:28.822Z,29.16
2018-08-30T13:03:58.365Z,29.19
2018-08-30T13:06:28.263Z,29.22
2018-08-30T13:08:58.108Z,29.23
2018-08-30T13:11:27.794Z,29.17
2018-08-30T13:13:57.255Z,29.09
2018-08-30T13:16:27.080Z,28.99
2018-08-30T13:18:56.709Z,28.91
2018-08-30T13:21:26.030Z,28.82
2018-08-30T13:23:55.513Z,28.74
2018-08-30T13:26:24.908Z,28.63
2018-08-30T13:28:54.195Z,28.56
2018-08-30T13:31:24.298Z,28.50
2018-08-30T13:33:53.977Z,28.42
2018-08-30T13:36:23.386Z,28.34
2018-08-30T13:38:52.408Z,28.29
2018-08-30T13:41:21.875Z,28.23
2018-08-30T13:43:51.048Z,28.18
2018-08-30T13:46:20.289Z,28.13
2018-08-30T13:48:49.809Z,28.03
2018-08-30T13:51:19.102Z,27.95
2018-08-30T13:53:48.262Z,27.87
2018-08-30T13:56:17.960Z,27.78
2018-08-30T13:58:47.188Z,27.70
2018-08-30T14:01:16.762Z,27.63
2018-08-30T14:03:45.715Z,27.55
2018-08-30T14:06:15.034Z,27.46
2018-08-30T14:08:44.575Z,27.39
2018-08-30T14:11:14.233Z,27.31
2018-08-30T14:13:43.514Z,27.22
2018-08-30T14:16:13.267Z,27.11
2018-08-30T14:18:42.289Z,27.00
2018-08-30T14:21:12.183Z,26.92
2018-08-30T14:23:41.412Z,26.84
2018-08-30T14:26:10.768Z,26.74
2018-08-30T14:28:40.175Z,26.63
2018-08-30T14:31:15.818Z,26.52
2018-08-30T14:33:45.336Z,26.39
2018-08-30T14:36:14.311Z,26.26
2018-08-30T14:38:43.592Z,26.14
2018-08-30T14:41:13.653Z,26.04
2018-08-30T14:43:43.491Z,25.95
2018-08-30T14:46:12.789Z,25.84
2018-08-30T14:48:42.317Z,25.71
2018-08-30T14:51:11.383Z,25.58
2018-08-30T14:53:40.626Z,25.46
2018-08-30T14:56:09.719Z,25.36
2018-08-30T14:58:38.950Z,25.28
2018-08-30T15:01:08.793Z,25.20
2018-08-30T15:03:37.859Z,25.11
2018-08-30T15:06:07.213Z,25.05
2018-08-30T15:08:36.307Z,24.99
2018-08-30T15:11:05.507Z,24.93
2018-08-30T15:13:34.641Z,24.85
2018-08-30T15:16:03.630Z,24.79
2018-08-30T15:18:32.747Z,24.75
2018-08-30T15:21:03.327Z,24.68
2018-08-30T15:23:32.354Z,24.60
2018-08-30T15:26:01.743Z,24.53
2018-08-30T15:28:32.166Z,24.44
2018-08-30T15:31:01.307Z,24.36
2018-08-30T15:33:30.420Z,24.28
2018-08-30T15:35:59.707Z,24.18
2018-08-30T15:38:29.099Z,24.10
2018-08-30T15:40:58.668Z,24.02
2018-08-30T15:43:27.655Z,23.94
2018-08-30T15:45:57.521Z,23.83
2018-08-30T15:48:26.941Z,23.74
2018-08-30T15:50:56.145Z,23.67
2018-08-30T15:53:25.378Z,23.57
2018-08-30T15:55:54.528Z,23.46
2018-08-30T15:58:24.024Z,23.36
2018-08-30T16:00:53.471Z,23.31
2018-08-30T16:03:22.842Z,23.24
2018-08-30T16:05:52.133Z,23.16
2018-08-30T16:08:21.362Z,23.12
2018-08-30T16:10:50.442Z,23.04
2018-08-30T16:13:19.751Z,22.97
2018-08-30T16:15:48.831Z,22.89
2018-08-30T16:18:18.287Z,22.76
2018-08-30T16:20:47.438Z,22.61
2018-08-30T16:23:26.020Z,22.44
2018-08-30T16:25:55.910Z,22.30
2018-08-30T16:28:25.758Z,22.17
2018-08-30T16:30:55.341Z,22.05
2018-08-30T16:33:24.756Z,21.95
2018-08-30T16:35:53.861Z,21.84
2018-08-30T16:38:22.904Z,21.73
2018-08-30T16:40:52.084Z,21.64
2018-08-30T16:43:21.284Z,21.55
2018-08-30T16:45:51.209Z,21.45
2018-08-30T16:48:20.981Z,21.37
2018-08-30T16:50:50.219Z,21.27
2018-08-30T16:53:19.450Z,21.19
2018-08-30T16:55:48.472Z,21.10
2018-08-30T16:58:17.746Z,21.02
2018-08-30T17:00:46.959Z,20.93
2018-08-30T17:03:16.203Z,20.85
2018-08-30T17:05:45.378Z,20.74
2018-08-30T17:08:14.781Z,20.61
2018-08-30T17:10:44.754Z,20.51
2018-08-30T17:13:14.046Z,20.39
2018-08-30T17:15:43.090Z,20.31
2018-08-30T17:18:12.229Z,20.25
2018-08-30T17:20:42.945Z,20.16
2018-08-30T17:23:12.395Z,20.07
2018-08-30T17:25:42.399Z,19.99
2018-08-30T17:28:11.740Z,19.91
2018-08-30T17:30:41.119Z,19.83
2018-08-30T17:33:10.452Z,19.80
2018-08-30T17:35:39.723Z,19.73
2018-08-30T17:38:09.027Z,19.66
2018-08-30T17:40:38.044Z,19.59
2018-08-30T17:43:07.099Z,19.56
2018-08-30T17:45:36.282Z,19.54
2018-08-30T17:48:05.677Z,19.51
2018-08-30T17:50:35.003Z,19.48
2018-08-30T17:53:04.579Z,19.47
2018-08-30T17:55:33.820Z,19.45
2018-08-30T17:58:03.284Z,19.46
2018-08-30T18:00:32.635Z,19.47
2018-08-30T18:03:01.764Z,19.47
2018-08-30T18:05:31.566Z,19.47
2018-08-30T18:08:00.796Z,19.47
2018-08-30T18:10:30.022Z,19.46
2018-08-30T18:12:59.223Z,19.46
2018-08-30T18:15:28.422Z,19.47
2018-08-30T18:17:57.676Z,19.46
2018-08-30T18:20:27.096Z,19.44
2018-08-30T18:22:56.385Z,19.44
2018-08-30T18:25:25.379Z,19.44
2018-08-30T18:27:54.386Z,19.46
2018-08-30T18:30:23.825Z,19.45
2018-08-30T18:32:52.982Z,19.45
2018-08-30T18:35:22.399Z,19.47
2018-08-30T18:37:51.878Z,19.46
2018-08-30T18:40:21.010Z,19.48
2018-08-30T18:42:50.395Z,19.48
2018-08-30T18:45:19.649Z,19.47
2018-08-30T18:47:48.892Z,19.47
2018-08-30T18:50:18.700Z,19.44
2018-08-30T18:52:47.785Z,19.43
2018-08-30T18:55:17.266Z,19.42
2018-08-30T18:57:46.627Z,19.41
2018-08-30T19:00:15.799Z,19.40
2018-08-30T19:02:45.794Z,19.40
2018-08-30T19:05:15.905Z,19.42
2018-08-30T19:07:45.134Z,19.46
2018-08-30T19:10:14.496Z,19.50
2018-08-30T19:12:44.105Z,19.53
2018-08-30T19:15:18.631Z,19.58
2018-08-30T19:17:52.952Z,19.62
2018-08-30T19:20:22.084Z,19.66
2018-08-30T19:22:51.867Z,19.67
2018-08-30T19:25:29.071Z,19.68
2018-08-30T19:27:58.132Z,19.69
2018-08-30T19:30:28.842Z,19.70
2018-08-30T19:32:58.768Z,19.69
2018-08-30T19:35:33.171Z,19.69
2018-08-30T19:38:02.490Z,19.70
2018-08-30T19:40:36.749Z,19.73
2018-08-30T19:43:06.480Z,19.73
2018-08-30T19:45:35.687Z,19.75
2018-08-30T19:48:05.555Z,19.77
2018-08-30T19:50:34.589Z,19.78
2018-08-30T19:53:03.601Z,19.81
2018-08-30T19:55:32.665Z,19.84
2018-08-30T19:58:01.754Z,19.85
2018-08-30T20:00:30.903Z,19.88
2018-08-30T20:03:00.161Z,19.90
2018-08-30T20:05:29.253Z,19.92
2018-08-30T20:07:58.567Z,19.94
2018-08-30T20:10:27.550Z,19.95
2018-08-30T20:13:03.002Z,19.97
2018-08-30T20:15:32.324Z,19.99
2018-08-30T20:18:01.303Z,20.02
2018-08-30T20:20:31.275Z,20.03
2018-08-30T20:23:00.594Z,20.03
2018-08-30T20:25:29.581Z,20.05
2018-08-30T20:28:02.581Z,20.06
2018-08-30T20:30:32.088Z,20.08
2018-08-30T20:33:01.687Z,20.11
2018-08-30T20:35:30.799Z,20.14
2018-08-30T20:38:00.008Z,20.16
2018-08-30T20:40:29.146Z,20.19
2018-08-30T20:42:58.322Z,20.22
2018-08-30T20:45:27.280Z,20.25
2018-08-30T20:47:56.374Z,20.28
2018-08-30T20:50:25.509Z,20.31
2018-08-30T20:52:54.568Z,20.34
2018-08-30T20:55:23.706Z,20.36
2018-08-30T20:57:53.035Z,20.38
2018-08-30T21:00:22.320Z,20.39
2018-08-30T21:02:51.596Z,20.40
2018-08-30T21:05:20.563Z,20.44
2018-08-30T21:07:50.133Z,20.46
2018-08-30T21:10:19.275Z,20.48
2018-08-30T21:12:48.618Z,20.50
2018-08-30T21:15:17.787Z,20.51
2018-08-30T21:17:46.967Z,20.50
2018-08-30T21:20:15.996Z,20.51
2018-08-30T21:22:45.381Z,20.48
2018-08-30T21:25:14.474Z,20.47
2018-08-30T21:27:43.822Z,20.46
2018-08-30T21:30:13.925Z,20.47
2018-08-30T21:32:43.279Z,20.48
2018-08-30T21:35:12.704Z,20.49
2018-08-30T21:37:41.758Z,20.53
2018-08-30T21:40:11.046Z,20.56
2018-08-30T21:42:40.801Z,20.60
2018-08-30T21:45:09.940Z,20.63
2018-08-30T21:47:38.972Z,20.63
2018-08-30T21:50:08.263Z,20.63
2018-08-30T21:52:37.305Z,20.62
2018-08-30T21:55:07.138Z,20.61
2018-08-30T21:57:36.468Z,20.59
2018-08-30T22:00:07.094Z,20.58
2018-08-30T22:02:36.568Z,20.55
2018-08-30T22:05:06.186Z,20.48
2018-08-30T22:07:35.534Z,20.44
2018-08-30T22:10:04.964Z,20.40
2018-08-30T22:12:34.163Z,20.40
2018-08-30T22:15:03.508Z,20.38
2018-08-30T22:17:32.656Z,20.38
2018-08-30T22:20:02.154Z,20.34
2018-08-30T22:22:31.113Z,20.31
2018-08-30T22:25:00.070Z,20.27
2018-08-30T22:27:29.630Z,20.25
2018-08-30T22:29:58.870Z,20.24
2018-08-30T22:32:28.134Z,20.22
2018-08-30T22:34:57.158Z,20.22
2018-08-30T22:37:26.352Z,20.20
2018-08-30T22:39:55.798Z,20.21
2018-08-30T22:42:24.967Z,20.21
2018-08-30T22:44:53.950Z,20.22
2018-08-30T22:47:23.235Z,20.23
2018-08-30T22:49:52.415Z,20.23
2018-08-30T22:52:21.768Z,20.24
2018-08-30T22:54:51.994Z,20.20
2018-08-30T22:57:21.670Z,20.21
2018-08-30T22:59:51.259Z,20.22
2018-08-30T23:02:20.771Z,20.22
2018-08-30T23:04:50.108Z,20.20
2018-08-30T23:07:20.738Z,20.22
2018-08-30T23:09:49.894Z,20.23
2018-08-30T23:12:19.283Z,20.24
2018-08-30T23:14:48.409Z,20.22
2018-08-30T23:17:17.963Z,20.22
2018-08-30T23:19:47.240Z,20.21
2018-08-30T23:22:16.432Z,20.23
2018-08-30T23:24:45.769Z,20.22
2018-08-30T23:27:14.989Z,20.21
2018-08-30T23:29:44.251Z,20.19
2018-08-30T23:32:13.209Z,20.19
2018-08-30T23:34:42.672Z,20.16
2018-08-30T23:37:12.011Z,20.14
2018-08-30T23:39:41.517Z,20.13
2018-08-30T23:42:11.024Z,20.12
2018-08-30T23:44:40.819Z,19.97
2018-08-30T23:47:10.093Z,20.08
2018-08-30T23:49:39.308Z,20.06
2018-08-30T23:52:08.647Z,20.06
2018-08-30T23:54:37.962Z,20.07
2018-08-30T23:57:07.057Z,20.06
2018-08-30T23:59:46.970Z,20.06
